sensor_id;sensor_type;location;lat;lon;timestamp;P1;durP1;ratioP1;P2;durP2;ratioP2
72060;SDS011;59925;52.136;5.420;2023-05-01T00:01:03;2.33;;;1.85;;
72060;SDS011;59925;52.136;5.420;2023-05-01T00:03:33;3.88;;;2.05;;
72060;SDS011;59925;52.136;5.420;2023-05-01T00:06:01;4.63;;;2.20;;
72060;SDS011;59925;52.136;5.420;2023-05-01T00:08:30;6.15;;;2.20;;
72060;SDS011;59925;52.136;5.420;2023-05-01T00:11:01;5.38;;;2.10;;
72060;SDS011;59925;52.136;5.420;2023-05-01T00:13:31;5.55;;;1.90;;
72060;SDS011;59925;52.136;5.420;2023-05-01T00:15:58;7.18;;;2.80;;
72060;SDS011;59925;52.136;5.420;2023-05-01T00:18:25;4.93;;;2.67;;
72060;SDS011;59925;52.136;5.420;2023-05-01T00:20:51;5.40;;;2.90;;
72060;SDS011;59925;52.136;5.420;2023-05-01T00:23:18;6.18;;;3.00;;
72060;SDS011;59925;52.136;5.420;2023-05-01T00:25:44;5.05;;;3.05;;
72060;SDS011;59925;52.136;5.420;2023-05-01T00:28:11;5.55;;;3.15;;
72060;SDS011;59925;52.136;5.420;2023-05-01T00:30:37;4.93;;;2.90;;
72060;SDS011;59925;52.136;5.420;2023-05-01T00:33:05;4.82;;;3.13;;
72060;SDS011;59925;52.136;5.420;2023-05-01T00:35:32;5.13;;;3.17;;
72060;SDS011;59925;52.136;5.420;2023-05-01T00:38:00;6.25;;;2.92;;
72060;SDS011;59925;52.136;5.420;2023-05-01T00:40:27;5.43;;;2.72;;
72060;SDS011;59925;52.136;5.420;2023-05-01T00:42:53;5.70;;;2.97;;
72060;SDS011;59925;52.136;5.420;2023-05-01T00:45:21;5.05;;;3.00;;
72060;SDS011;59925;52.136;5.420;2023-05-01T00:47:47;6.10;;;2.72;;
72060;SDS011;59925;52.136;5.420;2023-05-01T00:50:14;4.32;;;3.00;;
72060;SDS011;59925;52.136;5.420;2023-05-01T00:52:40;5.80;;;2.63;;
72060;SDS011;59925;52.136;5.420;2023-05-01T00:55:07;6.30;;;2.43;;
72060;SDS011;59925;52.136;5.420;2023-05-01T01:15:43;5.90;;;2.13;;
72060;SDS011;59925;52.136;5.420;2023-05-01T01:18:23;6.57;;;2.10;;
72060;SDS011;59925;52.136;5.420;2023-05-01T01:21:54;3.83;;;2.20;;
72060;SDS011;59925;52.136;5.420;2023-05-01T01:24:11;4.90;;;2.50;;
72060;SDS011;59925;52.136;5.420;2023-05-01T01:27:29;5.27;;;2.60;;
72060;SDS011;59925;52.136;5.420;2023-05-01T01:35:16;6.68;;;2.15;;
72060;SDS011;59925;52.136;5.420;2023-05-01T01:37:54;5.18;;;2.40;;
72060;SDS011;59925;52.136;5.420;2023-05-01T01:40:23;7.23;;;2.37;;
72060;SDS011;59925;52.136;5.420;2023-05-01T01:45:34;4.40;;;1.90;;
72060;SDS011;59925;52.136;5.420;2023-05-01T01:48:04;7.95;;;2.35;;
72060;SDS011;59925;52.136;5.420;2023-05-01T01:50:33;4.70;;;2.40;;
72060;SDS011;59925;52.136;5.420;2023-05-01T01:53:02;5.83;;;2.33;;
72060;SDS011;59925;52.136;5.420;2023-05-01T01:55:31;5.15;;;2.38;;
72060;SDS011;59925;52.136;5.420;2023-05-01T01:58:00;4.07;;;1.98;;
72060;SDS011;59925;52.136;5.420;2023-05-01T02:00:29;4.78;;;2.40;;
72060;SDS011;59925;52.136;5.420;2023-05-01T02:02:57;7.22;;;2.13;;
72060;SDS011;59925;52.136;5.420;2023-05-01T02:05:25;5.30;;;1.97;;
72060;SDS011;59925;52.136;5.420;2023-05-01T02:07:52;3.80;;;2.30;;
72060;SDS011;59925;52.136;5.420;2023-05-01T02:10:21;6.30;;;2.15;;
72060;SDS011;59925;52.136;5.420;2023-05-01T02:12:49;6.05;;;2.38;;
72060;SDS011;59925;52.136;5.420;2023-05-01T02:15:18;5.28;;;2.40;;
72060;SDS011;59925;52.136;5.420;2023-05-01T02:17:45;6.13;;;2.20;;
72060;SDS011;59925;52.136;5.420;2023-05-01T02:20:13;5.00;;;2.20;;
72060;SDS011;59925;52.136;5.420;2023-05-01T02:22:41;3.88;;;2.25;;
72060;SDS011;59925;52.136;5.420;2023-05-01T02:25:09;5.38;;;2.70;;
72060;SDS011;59925;52.136;5.420;2023-05-01T02:27:39;4.93;;;2.45;;
72060;SDS011;59925;52.136;5.420;2023-05-01T02:30:07;5.70;;;2.20;;
72060;SDS011;59925;52.136;5.420;2023-05-01T02:32:34;4.55;;;2.03;;
72060;SDS011;59925;52.136;5.420;2023-05-01T02:35:01;5.60;;;1.77;;
72060;SDS011;59925;52.136;5.420;2023-05-01T02:37:27;5.53;;;2.30;;
72060;SDS011;59925;52.136;5.420;2023-05-01T02:39:56;7.15;;;2.40;;
72060;SDS011;59925;52.136;5.420;2023-05-01T02:42:23;5.07;;;2.47;;
72060;SDS011;59925;52.136;5.420;2023-05-01T02:45:34;6.55;;;2.40;;
72060;SDS011;59925;52.136;5.420;2023-05-01T02:47:47;4.10;;;2.17;;
72060;SDS011;59925;52.136;5.420;2023-05-01T02:50:16;4.53;;;2.20;;
72060;SDS011;59925;52.136;5.420;2023-05-01T02:52:44;6.40;;;2.10;;
72060;SDS011;59925;52.136;5.420;2023-05-01T02:55:11;3.93;;;2.20;;
72060;SDS011;59925;52.136;5.420;2023-05-01T02:57:38;4.10;;;2.35;;
72060;SDS011;59925;52.136;5.420;2023-05-01T03:00:04;6.88;;;2.72;;
72060;SDS011;59925;52.136;5.420;2023-05-01T03:02:34;8.25;;;2.60;;
72060;SDS011;59925;52.136;5.420;2023-05-01T03:05:00;4.93;;;2.42;;
72060;SDS011;59925;52.136;5.420;2023-05-01T03:07:27;3.53;;;2.30;;
72060;SDS011;59925;52.136;5.420;2023-05-01T03:10:00;4.78;;;2.25;;
72060;SDS011;59925;52.136;5.420;2023-05-01T03:12:29;6.30;;;2.58;;
72060;SDS011;59925;52.136;5.420;2023-05-01T03:14:56;7.03;;;2.17;;
72060;SDS011;59925;52.136;5.420;2023-05-01T03:17:22;4.88;;;2.53;;
72060;SDS011;59925;52.136;5.420;2023-05-01T03:19:49;5.83;;;2.43;;
72060;SDS011;59925;52.136;5.420;2023-05-01T03:22:16;6.95;;;3.10;;
72060;SDS011;59925;52.136;5.420;2023-05-01T03:24:43;6.20;;;2.78;;
72060;SDS011;59925;52.136;5.420;2023-05-01T03:27:09;3.70;;;2.10;;
72060;SDS011;59925;52.136;5.420;2023-05-01T03:29:36;5.65;;;2.55;;
72060;SDS011;59925;52.136;5.420;2023-05-01T03:32:03;8.23;;;2.53;;
72060;SDS011;59925;52.136;5.420;2023-05-01T03:34:30;6.18;;;2.33;;
72060;SDS011;59925;52.136;5.420;2023-05-01T03:36:57;6.20;;;2.35;;
72060;SDS011;59925;52.136;5.420;2023-05-01T03:39:23;5.88;;;2.78;;
72060;SDS011;59925;52.136;5.420;2023-05-01T03:41:50;6.47;;;2.63;;
72060;SDS011;59925;52.136;5.420;2023-05-01T03:44:16;3.83;;;2.10;;
72060;SDS011;59925;52.136;5.420;2023-05-01T03:46:42;5.25;;;2.70;;
72060;SDS011;59925;52.136;5.420;2023-05-01T03:49:09;7.28;;;2.97;;
72060;SDS011;59925;52.136;5.420;2023-05-01T03:51:35;5.47;;;3.03;;
72060;SDS011;59925;52.136;5.420;2023-05-01T03:54:02;4.47;;;2.35;;
72060;SDS011;59925;52.136;5.420;2023-05-01T03:56:28;6.20;;;3.03;;
72060;SDS011;59925;52.136;5.420;2023-05-01T03:59:00;5.32;;;2.58;;
72060;SDS011;59925;52.136;5.420;2023-05-01T04:01:27;4.93;;;2.92;;
72060;SDS011;59925;52.136;5.420;2023-05-01T04:03:53;6.00;;;2.88;;
72060;SDS011;59925;52.136;5.420;2023-05-01T04:06:20;8.00;;;2.20;;
72060;SDS011;59925;52.136;5.420;2023-05-01T04:08:47;6.90;;;2.50;;
72060;SDS011;59925;52.136;5.420;2023-05-01T04:11:14;6.28;;;2.90;;
72060;SDS011;59925;52.136;5.420;2023-05-01T04:13:40;6.72;;;2.38;;
72060;SDS011;59925;52.136;5.420;2023-05-01T04:16:07;5.10;;;2.60;;
72060;SDS011;59925;52.136;5.420;2023-05-01T04:18:33;5.28;;;2.90;;
72060;SDS011;59925;52.136;5.420;2023-05-01T04:21:00;9.73;;;2.60;;
72060;SDS011;59925;52.136;5.420;2023-05-01T04:23:27;6.68;;;2.50;;
72060;SDS011;59925;52.136;5.420;2023-05-01T04:25:53;5.90;;;2.40;;
72060;SDS011;59925;52.136;5.420;2023-05-01T04:28:20;4.40;;;2.42;;
72060;SDS011;59925;52.136;5.420;2023-05-01T04:30:46;5.18;;;2.47;;
72060;SDS011;59925;52.136;5.420;2023-05-01T04:33:13;7.37;;;2.83;;
72060;SDS011;59925;52.136;5.420;2023-05-01T04:35:39;6.97;;;2.88;;
72060;SDS011;59925;52.136;5.420;2023-05-01T04:38:07;5.85;;;2.90;;
72060;SDS011;59925;52.136;5.420;2023-05-01T04:40:33;6.28;;;2.67;;
72060;SDS011;59925;52.136;5.420;2023-05-01T04:43:00;4.47;;;2.72;;
72060;SDS011;59925;52.136;5.420;2023-05-01T04:45:26;5.87;;;2.60;;
72060;SDS011;59925;52.136;5.420;2023-05-01T04:47:53;5.90;;;2.75;;
72060;SDS011;59925;52.136;5.420;2023-05-01T04:50:19;5.32;;;2.75;;
72060;SDS011;59925;52.136;5.420;2023-05-01T04:52:46;6.50;;;2.47;;
72060;SDS011;59925;52.136;5.420;2023-05-01T04:55:12;4.57;;;2.50;;
72060;SDS011;59925;52.136;5.420;2023-05-01T04:57:39;5.30;;;2.43;;
72060;SDS011;59925;52.136;5.420;2023-05-01T05:00:05;6.18;;;2.50;;
72060;SDS011;59925;52.136;5.420;2023-05-01T05:02:33;6.47;;;2.75;;
72060;SDS011;59925;52.136;5.420;2023-05-01T05:04:59;6.32;;;2.55;;
72060;SDS011;59925;52.136;5.420;2023-05-01T05:07:26;4.95;;;2.50;;
72060;SDS011;59925;52.136;5.420;2023-05-01T05:09:52;4.67;;;2.50;;
72060;SDS011;59925;52.136;5.420;2023-05-01T05:12:19;7.95;;;2.97;;
72060;SDS011;59925;52.136;5.420;2023-05-01T05:14:45;5.13;;;2.30;;
72060;SDS011;59925;52.136;5.420;2023-05-01T05:17:13;3.90;;;2.35;;
72060;SDS011;59925;52.136;5.420;2023-05-01T05:19:39;8.82;;;2.80;;
72060;SDS011;59925;52.136;5.420;2023-05-01T05:22:05;6.33;;;2.30;;
72060;SDS011;59925;52.136;5.420;2023-05-01T05:24:32;8.52;;;2.60;;
72060;SDS011;59925;52.136;5.420;2023-05-01T05:26:59;6.65;;;2.97;;
72060;SDS011;59925;52.136;5.420;2023-05-01T05:29:25;6.13;;;2.97;;
72060;SDS011;59925;52.136;5.420;2023-05-01T05:31:52;5.38;;;2.70;;
72060;SDS011;59925;52.136;5.420;2023-05-01T05:34:18;5.87;;;2.67;;
72060;SDS011;59925;52.136;5.420;2023-05-01T05:36:45;7.80;;;3.33;;
72060;SDS011;59925;52.136;5.420;2023-05-01T05:39:11;5.40;;;2.47;;
72060;SDS011;59925;52.136;5.420;2023-05-01T05:41:38;6.43;;;2.58;;
72060;SDS011;59925;52.136;5.420;2023-05-01T05:44:05;4.78;;;2.53;;
72060;SDS011;59925;52.136;5.420;2023-05-01T05:46:32;6.33;;;3.00;;
72060;SDS011;59925;52.136;5.420;2023-05-01T05:48:58;4.25;;;2.38;;
72060;SDS011;59925;52.136;5.420;2023-05-01T05:51:25;10.00;;;2.95;;
72060;SDS011;59925;52.136;5.420;2023-05-01T05:53:51;7.53;;;2.67;;
72060;SDS011;59925;52.136;5.420;2023-05-01T05:56:18;4.88;;;2.83;;
72060;SDS011;59925;52.136;5.420;2023-05-01T05:58:44;8.10;;;2.97;;
72060;SDS011;59925;52.136;5.420;2023-05-01T06:01:10;7.72;;;3.17;;
72060;SDS011;59925;52.136;5.420;2023-05-01T06:03:37;6.43;;;2.95;;
72060;SDS011;59925;52.136;5.420;2023-05-01T06:06:04;5.70;;;2.65;;
72060;SDS011;59925;52.136;5.420;2023-05-01T06:08:31;6.53;;;2.67;;
72060;SDS011;59925;52.136;5.420;2023-05-01T06:10:57;4.43;;;2.93;;
72060;SDS011;59925;52.136;5.420;2023-05-01T06:13:24;6.15;;;2.88;;
72060;SDS011;59925;52.136;5.420;2023-05-01T06:15:50;6.57;;;2.55;;
72060;SDS011;59925;52.136;5.420;2023-05-01T06:18:17;5.75;;;2.90;;
72060;SDS011;59925;52.136;5.420;2023-05-01T06:20:44;9.35;;;2.75;;
72060;SDS011;59925;52.136;5.420;2023-05-01T06:23:10;4.87;;;2.77;;
72060;SDS011;59925;52.136;5.420;2023-05-01T06:25:38;6.10;;;2.65;;
72060;SDS011;59925;52.136;5.420;2023-05-01T06:28:05;5.78;;;2.80;;
72060;SDS011;59925;52.136;5.420;2023-05-01T06:30:33;7.47;;;3.20;;
72060;SDS011;59925;52.136;5.420;2023-05-01T06:32:59;6.28;;;3.30;;
72060;SDS011;59925;52.136;5.420;2023-05-01T06:35:26;6.13;;;3.00;;
72060;SDS011;59925;52.136;5.420;2023-05-01T06:37:53;5.00;;;3.00;;
72060;SDS011;59925;52.136;5.420;2023-05-01T06:40:21;8.02;;;3.05;;
72060;SDS011;59925;52.136;5.420;2023-05-01T06:42:47;4.50;;;2.80;;
72060;SDS011;59925;52.136;5.420;2023-05-01T06:45:14;8.45;;;2.95;;
72060;SDS011;59925;52.136;5.420;2023-05-01T06:47:40;7.77;;;3.40;;
72060;SDS011;59925;52.136;5.420;2023-05-01T06:50:07;14.05;;;3.35;;
72060;SDS011;59925;52.136;5.420;2023-05-01T06:52:34;12.60;;;3.20;;
72060;SDS011;59925;52.136;5.420;2023-05-01T06:55:01;9.80;;;3.40;;
72060;SDS011;59925;52.136;5.420;2023-05-01T06:57:27;10.15;;;3.50;;
72060;SDS011;59925;52.136;5.420;2023-05-01T06:59:53;7.87;;;3.20;;
72060;SDS011;59925;52.136;5.420;2023-05-01T07:02:20;6.78;;;3.13;;
72060;SDS011;59925;52.136;5.420;2023-05-01T07:04:47;7.80;;;2.53;;
72060;SDS011;59925;52.136;5.420;2023-05-01T07:07:13;5.03;;;3.00;;
72060;SDS011;59925;52.136;5.420;2023-05-01T07:09:40;7.13;;;3.03;;
72060;SDS011;59925;52.136;5.420;2023-05-01T07:12:06;5.60;;;3.00;;
72060;SDS011;59925;52.136;5.420;2023-05-01T07:14:34;7.68;;;3.67;;
72060;SDS011;59925;52.136;5.420;2023-05-01T07:17:01;6.63;;;3.65;;
72060;SDS011;59925;52.136;5.420;2023-05-01T07:19:28;8.05;;;3.47;;
72060;SDS011;59925;52.136;5.420;2023-05-01T07:21:54;7.15;;;3.47;;
72060;SDS011;59925;52.136;5.420;2023-05-01T07:24:20;5.87;;;3.27;;
72060;SDS011;59925;52.136;5.420;2023-05-01T07:26:47;6.28;;;3.20;;
72060;SDS011;59925;52.136;5.420;2023-05-01T07:29:14;5.20;;;3.10;;
72060;SDS011;59925;52.136;5.420;2023-05-01T07:31:41;8.48;;;2.97;;
72060;SDS011;59925;52.136;5.420;2023-05-01T07:34:08;8.05;;;3.33;;
72060;SDS011;59925;52.136;5.420;2023-05-01T07:36:35;8.50;;;3.43;;
72060;SDS011;59925;52.136;5.420;2023-05-01T07:39:01;8.88;;;3.05;;
72060;SDS011;59925;52.136;5.420;2023-05-01T07:41:29;5.60;;;3.25;;
72060;SDS011;59925;52.136;5.420;2023-05-01T07:43:59;5.75;;;3.15;;
72060;SDS011;59925;52.136;5.420;2023-05-01T07:46:26;6.82;;;3.22;;
72060;SDS011;59925;52.136;5.420;2023-05-01T07:48:52;7.23;;;3.47;;
72060;SDS011;59925;52.136;5.420;2023-05-01T07:51:19;7.00;;;3.80;;
72060;SDS011;59925;52.136;5.420;2023-05-01T07:53:45;7.70;;;3.28;;
72060;SDS011;59925;52.136;5.420;2023-05-01T07:56:13;9.38;;;3.60;;
72060;SDS011;59925;52.136;5.420;2023-05-01T07:58:41;7.53;;;3.60;;
72060;SDS011;59925;52.136;5.420;2023-05-01T08:01:08;8.10;;;3.67;;
72060;SDS011;59925;52.136;5.420;2023-05-01T08:03:34;6.80;;;3.53;;
72060;SDS011;59925;52.136;5.420;2023-05-01T08:06:01;7.05;;;3.47;;
72060;SDS011;59925;52.136;5.420;2023-05-01T08:08:28;7.00;;;3.47;;
72060;SDS011;59925;52.136;5.420;2023-05-01T08:10:54;9.23;;;4.10;;
72060;SDS011;59925;52.136;5.420;2023-05-01T08:13:21;7.97;;;3.20;;
72060;SDS011;59925;52.136;5.420;2023-05-01T08:15:48;7.68;;;3.25;;
72060;SDS011;59925;52.136;5.420;2023-05-01T08:18:14;7.25;;;3.53;;
72060;SDS011;59925;52.136;5.420;2023-05-01T08:20:46;5.60;;;3.40;;
72060;SDS011;59925;52.136;5.420;2023-05-01T08:23:13;7.15;;;3.50;;
72060;SDS011;59925;52.136;5.420;2023-05-01T08:25:40;7.23;;;3.80;;
72060;SDS011;59925;52.136;5.420;2023-05-01T08:28:07;5.68;;;3.58;;
72060;SDS011;59925;52.136;5.420;2023-05-01T08:30:34;8.60;;;3.42;;
72060;SDS011;59925;52.136;5.420;2023-05-01T08:33:01;11.80;;;4.10;;
72060;SDS011;59925;52.136;5.420;2023-05-01T08:35:27;6.00;;;3.40;;
72060;SDS011;59925;52.136;5.420;2023-05-01T08:37:54;7.60;;;3.70;;
72060;SDS011;59925;52.136;5.420;2023-05-01T08:40:21;6.13;;;3.50;;
72060;SDS011;59925;52.136;5.420;2023-05-01T08:42:49;6.88;;;3.65;;
72060;SDS011;59925;52.136;5.420;2023-05-01T08:45:16;10.13;;;3.95;;
72060;SDS011;59925;52.136;5.420;2023-05-01T08:47:44;5.82;;;3.72;;
72060;SDS011;59925;52.136;5.420;2023-05-01T08:50:11;9.70;;;3.63;;
72060;SDS011;59925;52.136;5.420;2023-05-01T08:52:40;6.13;;;3.53;;
72060;SDS011;59925;52.136;5.420;2023-05-01T08:55:11;7.65;;;3.63;;
72060;SDS011;59925;52.136;5.420;2023-05-01T08:57:45;7.70;;;3.70;;
72060;SDS011;59925;52.136;5.420;2023-05-01T09:00:17;8.48;;;3.75;;
72060;SDS011;59925;52.136;5.420;2023-05-01T09:02:45;8.57;;;3.60;;
72060;SDS011;59925;52.136;5.420;2023-05-01T09:05:16;7.97;;;4.13;;
72060;SDS011;59925;52.136;5.420;2023-05-01T09:07:43;8.88;;;3.85;;
72060;SDS011;59925;52.136;5.420;2023-05-01T09:10:14;5.88;;;3.53;;
72060;SDS011;59925;52.136;5.420;2023-05-01T09:12:43;6.05;;;3.80;;
72060;SDS011;59925;52.136;5.420;2023-05-01T09:15:12;8.17;;;3.57;;
72060;SDS011;59925;52.136;5.420;2023-05-01T09:17:38;8.80;;;4.40;;
72060;SDS011;59925;52.136;5.420;2023-05-01T09:20:05;7.43;;;3.85;;
72060;SDS011;59925;52.136;5.420;2023-05-01T09:22:33;6.60;;;3.80;;
72060;SDS011;59925;52.136;5.420;2023-05-01T09:25:00;6.07;;;3.35;;
72060;SDS011;59925;52.136;5.420;2023-05-01T09:27:28;6.30;;;3.97;;
72060;SDS011;59925;52.136;5.420;2023-05-01T09:29:59;7.50;;;3.78;;
72060;SDS011;59925;52.136;5.420;2023-05-01T09:32:26;6.78;;;3.60;;
72060;SDS011;59925;52.136;5.420;2023-05-01T09:35:11;5.38;;;3.60;;
72060;SDS011;59925;52.136;5.420;2023-05-01T09:37:39;8.00;;;4.05;;
72060;SDS011;59925;52.136;5.420;2023-05-01T09:40:07;7.47;;;3.60;;
72060;SDS011;59925;52.136;5.420;2023-05-01T09:42:46;5.63;;;3.30;;
72060;SDS011;59925;52.136;5.420;2023-05-01T09:45:15;6.32;;;3.78;;
72060;SDS011;59925;52.136;5.420;2023-05-01T09:47:46;5.50;;;3.50;;
72060;SDS011;59925;52.136;5.420;2023-05-01T09:50:30;7.30;;;3.55;;
72060;SDS011;59925;52.136;5.420;2023-05-01T09:53:00;6.60;;;3.47;;
72060;SDS011;59925;52.136;5.420;2023-05-01T09:55:29;6.80;;;3.97;;
72060;SDS011;59925;52.136;5.420;2023-05-01T09:57:56;7.25;;;3.58;;
72060;SDS011;59925;52.136;5.420;2023-05-01T10:00:23;5.57;;;3.10;;
72060;SDS011;59925;52.136;5.420;2023-05-01T10:02:51;7.72;;;3.28;;
72060;SDS011;59925;52.136;5.420;2023-05-01T10:05:18;9.53;;;3.83;;
72060;SDS011;59925;52.136;5.420;2023-05-01T10:08:00;6.35;;;3.10;;
72060;SDS011;59925;52.136;5.420;2023-05-01T10:10:28;6.00;;;2.92;;
72060;SDS011;59925;52.136;5.420;2023-05-01T10:12:55;6.32;;;3.80;;
72060;SDS011;59925;52.136;5.420;2023-05-01T10:15:37;6.93;;;3.28;;
72060;SDS011;59925;52.136;5.420;2023-05-01T10:18:04;5.93;;;3.40;;
72060;SDS011;59925;52.136;5.420;2023-05-01T10:20:34;5.18;;;3.10;;
72060;SDS011;59925;52.136;5.420;2023-05-01T10:23:01;8.32;;;3.78;;
72060;SDS011;59925;52.136;5.420;2023-05-01T10:25:31;6.20;;;3.45;;
72060;SDS011;59925;52.136;5.420;2023-05-01T10:27:58;6.60;;;3.30;;
72060;SDS011;59925;52.136;5.420;2023-05-01T10:30:28;6.90;;;3.63;;
72060;SDS011;59925;52.136;5.420;2023-05-01T10:32:57;8.27;;;3.30;;
72060;SDS011;59925;52.136;5.420;2023-05-01T10:35:26;6.82;;;3.40;;
72060;SDS011;59925;52.136;5.420;2023-05-01T10:38:01;6.97;;;3.40;;
72060;SDS011;59925;52.136;5.420;2023-05-01T10:40:46;8.15;;;3.38;;
72060;SDS011;59925;52.136;5.420;2023-05-01T10:43:21;5.37;;;3.33;;
72060;SDS011;59925;52.136;5.420;2023-05-01T10:51:17;7.05;;;3.30;;
72060;SDS011;59925;52.136;5.420;2023-05-01T10:56:40;8.73;;;3.00;;
72060;SDS011;59925;52.136;5.420;2023-05-01T10:59:08;9.73;;;3.28;;
72060;SDS011;59925;52.136;5.420;2023-05-01T11:01:45;7.00;;;3.40;;
72060;SDS011;59925;52.136;5.420;2023-05-01T11:09:40;6.27;;;3.60;;
72060;SDS011;59925;52.136;5.420;2023-05-01T11:12:09;6.25;;;3.58;;
72060;SDS011;59925;52.136;5.420;2023-05-01T11:20:08;9.38;;;4.13;;
72060;SDS011;59925;52.136;5.420;2023-05-01T11:22:37;8.90;;;3.00;;
72060;SDS011;59925;52.136;5.420;2023-05-01T11:25:20;6.40;;;3.00;;
72060;SDS011;59925;52.136;5.420;2023-05-01T11:28:02;5.03;;;2.80;;
72060;SDS011;59925;52.136;5.420;2023-05-01T11:30:37;7.53;;;3.00;;
72060;SDS011;59925;52.136;5.420;2023-05-01T11:33:05;6.07;;;3.22;;
72060;SDS011;59925;52.136;5.420;2023-05-01T11:35:35;7.33;;;2.87;;
72060;SDS011;59925;52.136;5.420;2023-05-01T11:38:02;4.70;;;2.75;;
72060;SDS011;59925;52.136;5.420;2023-05-01T11:40:29;6.43;;;2.90;;
72060;SDS011;59925;52.136;5.420;2023-05-01T11:43:00;5.65;;;3.35;;
72060;SDS011;59925;52.136;5.420;2023-05-01T11:45:34;5.57;;;3.03;;
72060;SDS011;59925;52.136;5.420;2023-05-01T11:48:02;4.83;;;2.43;;
72060;SDS011;59925;52.136;5.420;2023-05-01T11:50:34;5.80;;;2.70;;
72060;SDS011;59925;52.136;5.420;2023-05-01T11:53:02;4.38;;;2.90;;
72060;SDS011;59925;52.136;5.420;2023-05-01T11:55:36;9.55;;;2.90;;
72060;SDS011;59925;52.136;5.420;2023-05-01T11:58:03;6.82;;;3.10;;
72060;SDS011;59925;52.136;5.420;2023-05-01T12:03:00;5.72;;;2.80;;
72060;SDS011;59925;52.136;5.420;2023-05-01T12:05:29;6.70;;;3.35;;
72060;SDS011;59925;52.136;5.420;2023-05-01T12:08:15;6.63;;;2.88;;
72060;SDS011;59925;52.136;5.420;2023-05-01T12:10:46;5.28;;;3.45;;
72060;SDS011;59925;52.136;5.420;2023-05-01T12:13:15;7.30;;;3.13;;
72060;SDS011;59925;52.136;5.420;2023-05-01T12:15:45;6.18;;;3.20;;
72060;SDS011;59925;52.136;5.420;2023-05-01T12:18:13;4.95;;;3.35;;
72060;SDS011;59925;52.136;5.420;2023-05-01T12:20:45;6.53;;;3.13;;
72060;SDS011;59925;52.136;5.420;2023-05-01T12:23:14;5.82;;;3.10;;
72060;SDS011;59925;52.136;5.420;2023-05-01T12:25:42;8.13;;;2.90;;
72060;SDS011;59925;52.136;5.420;2023-05-01T12:28:17;5.05;;;2.83;;
72060;SDS011;59925;52.136;5.420;2023-05-01T12:30:46;6.25;;;3.55;;
72060;SDS011;59925;52.136;5.420;2023-05-01T12:33:15;7.10;;;3.63;;
72060;SDS011;59925;52.136;5.420;2023-05-01T12:35:43;11.18;;;3.92;;
72060;SDS011;59925;52.136;5.420;2023-05-01T12:38:15;9.43;;;3.87;;
72060;SDS011;59925;52.136;5.420;2023-05-01T12:43:20;7.47;;;4.18;;
72060;SDS011;59925;52.136;5.420;2023-05-01T12:45:51;9.38;;;4.63;;
72060;SDS011;59925;52.136;5.420;2023-05-01T12:48:18;8.45;;;4.18;;
72060;SDS011;59925;52.136;5.420;2023-05-01T12:50:46;10.53;;;4.03;;
72060;SDS011;59925;52.136;5.420;2023-05-01T12:53:16;11.23;;;3.95;;
72060;SDS011;59925;52.136;5.420;2023-05-01T12:55:45;7.20;;;4.07;;
72060;SDS011;59925;52.136;5.420;2023-05-01T12:58:13;8.48;;;3.67;;
72060;SDS011;59925;52.136;5.420;2023-05-01T13:00:45;9.68;;;4.13;;
72060;SDS011;59925;52.136;5.420;2023-05-01T13:03:12;7.23;;;3.80;;
72060;SDS011;59925;52.136;5.420;2023-05-01T13:05:48;12.35;;;3.85;;
72060;SDS011;59925;52.136;5.420;2023-05-01T13:08:26;6.05;;;3.35;;
72060;SDS011;59925;52.136;5.420;2023-05-01T13:10:55;7.97;;;4.07;;
72060;SDS011;59925;52.136;5.420;2023-05-01T13:13:28;6.88;;;3.40;;
72060;SDS011;59925;52.136;5.420;2023-05-01T13:16:02;7.10;;;3.30;;
72060;SDS011;59925;52.136;5.420;2023-05-01T13:18:42;5.55;;;3.30;;
72060;SDS011;59925;52.136;5.420;2023-05-01T13:21:19;7.70;;;3.42;;
72060;SDS011;59925;52.136;5.420;2023-05-01T13:23:53;8.27;;;3.40;;
72060;SDS011;59925;52.136;5.420;2023-05-01T13:26:30;5.78;;;4.07;;
72060;SDS011;59925;52.136;5.420;2023-05-01T13:28:59;9.07;;;4.00;;
72060;SDS011;59925;52.136;5.420;2023-05-01T13:31:27;8.02;;;3.67;;
72060;SDS011;59925;52.136;5.420;2023-05-01T13:33:53;6.07;;;3.90;;
72060;SDS011;59925;52.136;5.420;2023-05-01T13:36:22;6.53;;;3.20;;
72060;SDS011;59925;52.136;5.420;2023-05-01T13:38:53;7.93;;;3.25;;
72060;SDS011;59925;52.136;5.420;2023-05-01T13:41:22;7.70;;;3.37;;
72060;SDS011;59925;52.136;5.420;2023-05-01T13:43:51;7.43;;;3.45;;
72060;SDS011;59925;52.136;5.420;2023-05-01T13:46:19;6.28;;;2.80;;
72060;SDS011;59925;52.136;5.420;2023-05-01T13:48:48;6.55;;;3.17;;
72060;SDS011;59925;52.136;5.420;2023-05-01T13:51:21;6.00;;;2.72;;
72060;SDS011;59925;52.136;5.420;2023-05-01T13:53:49;6.60;;;3.27;;
72060;SDS011;59925;52.136;5.420;2023-05-01T13:56:18;5.35;;;3.40;;
72060;SDS011;59925;52.136;5.420;2023-05-01T13:58:44;7.55;;;3.05;;
72060;SDS011;59925;52.136;5.420;2023-05-01T14:01:15;6.05;;;2.90;;
72060;SDS011;59925;52.136;5.420;2023-05-01T14:03:46;6.88;;;2.78;;
72060;SDS011;59925;52.136;5.420;2023-05-01T14:06:14;8.70;;;3.23;;
72060;SDS011;59925;52.136;5.420;2023-05-01T14:08:42;7.75;;;3.08;;
72060;SDS011;59925;52.136;5.420;2023-05-01T14:11:11;11.00;;;3.17;;
72060;SDS011;59925;52.136;5.420;2023-05-01T14:13:39;6.10;;;2.80;;
72060;SDS011;59925;52.136;5.420;2023-05-01T14:16:07;9.23;;;3.10;;
72060;SDS011;59925;52.136;5.420;2023-05-01T14:18:44;5.63;;;3.13;;
72060;SDS011;59925;52.136;5.420;2023-05-01T14:21:13;4.63;;;2.65;;
72060;SDS011;59925;52.136;5.420;2023-05-01T14:23:40;6.13;;;2.90;;
72060;SDS011;59925;52.136;5.420;2023-05-01T14:26:07;9.15;;;3.90;;
72060;SDS011;59925;52.136;5.420;2023-05-01T14:28:38;7.78;;;2.90;;
72060;SDS011;59925;52.136;5.420;2023-05-01T14:31:08;6.97;;;3.77;;
72060;SDS011;59925;52.136;5.420;2023-05-01T14:33:38;4.82;;;2.97;;
72060;SDS011;59925;52.136;5.420;2023-05-01T14:36:07;6.95;;;2.92;;
72060;SDS011;59925;52.136;5.420;2023-05-01T14:38:33;5.03;;;2.30;;
72060;SDS011;59925;52.136;5.420;2023-05-01T14:41:04;4.38;;;1.92;;
72060;SDS011;59925;52.136;5.420;2023-05-01T14:43:32;4.27;;;2.40;;
72060;SDS011;59925;52.136;5.420;2023-05-01T14:45:58;6.82;;;2.28;;
72060;SDS011;59925;52.136;5.420;2023-05-01T14:48:28;4.57;;;2.10;;
72060;SDS011;59925;52.136;5.420;2023-05-01T14:50:59;6.25;;;3.65;;
72060;SDS011;59925;52.136;5.420;2023-05-01T14:53:30;6.43;;;2.88;;
72060;SDS011;59925;52.136;5.420;2023-05-01T14:55:57;5.07;;;2.60;;
72060;SDS011;59925;52.136;5.420;2023-05-01T14:58:23;5.13;;;2.63;;
72060;SDS011;59925;52.136;5.420;2023-05-01T15:00:50;4.28;;;3.03;;
72060;SDS011;59925;52.136;5.420;2023-05-01T15:03:16;6.47;;;3.00;;
72060;SDS011;59925;52.136;5.420;2023-05-01T15:05:43;6.93;;;2.70;;
72060;SDS011;59925;52.136;5.420;2023-05-01T15:08:11;4.60;;;2.87;;
72060;SDS011;59925;52.136;5.420;2023-05-01T15:10:37;5.60;;;3.08;;
72060;SDS011;59925;52.136;5.420;2023-05-01T15:13:04;5.25;;;3.17;;
72060;SDS011;59925;52.136;5.420;2023-05-01T15:15:31;4.55;;;3.13;;
72060;SDS011;59925;52.136;5.420;2023-05-01T15:17:58;5.68;;;3.60;;
72060;SDS011;59925;52.136;5.420;2023-05-01T15:20:24;6.37;;;3.20;;
72060;SDS011;59925;52.136;5.420;2023-05-01T15:22:51;7.72;;;3.47;;
72060;SDS011;59925;52.136;5.420;2023-05-01T15:25:17;5.05;;;3.28;;
72060;SDS011;59925;52.136;5.420;2023-05-01T15:27:44;9.25;;;3.40;;
72060;SDS011;59925;52.136;5.420;2023-05-01T15:30:11;5.15;;;3.65;;
72060;SDS011;59925;52.136;5.420;2023-05-01T15:32:38;6.60;;;3.37;;
72060;SDS011;59925;52.136;5.420;2023-05-01T15:35:04;6.43;;;3.80;;
72060;SDS011;59925;52.136;5.420;2023-05-01T15:37:31;4.97;;;3.45;;
72060;SDS011;59925;52.136;5.420;2023-05-01T15:39:58;6.60;;;3.85;;
72060;SDS011;59925;52.136;5.420;2023-05-01T15:42:24;6.82;;;3.47;;
72060;SDS011;59925;52.136;5.420;2023-05-01T15:44:51;4.37;;;3.23;;
72060;SDS011;59925;52.136;5.420;2023-05-01T15:47:17;6.03;;;3.67;;